sensor_id;sensor_type;location;lat;lon;timestamp;pressure;altitude;pressure_sealevel;temperature;humidity
43814;BME280;29669;55.706;37.656;2023-09-30T00:01:08;100347.03;;;16.38;nan
43814;BME280;29669;55.706;37.656;2023-09-30T00:03:37;100349.84;;;16.37;nan
43814;BME280;29669;55.706;37.656;2023-09-30T00:06:05;100351.91;;;16.41;nan
43814;BME280;29669;55.706;37.656;2023-09-30T00:08:33;100351.53;;;16.44;nan
43814;BME280;29669;55.706;37.656;2023-09-30T00:11:00;100351.47;;;16.38;nan
43814;BME280;29669;55.706;37.656;2023-09-30T00:13:28;100346.59;;;16.35;nan
43814;BME280;29669;55.706;37.656;2023-09-30T00:15:56;100345.41;;;16.37;nan
43814;BME280;29669;55.706;37.656;2023-09-30T00:18:23;100349.28;;;16.41;nan
43814;BME280;29669;55.706;37.656;2023-09-30T00:20:51;100343.84;;;16.43;nan
43814;BME280;29669;55.706;37.656;2023-09-30T00:23:18;100333.34;;;16.43;nan
43814;BME280;29669;55.706;37.656;2023-09-30T00:25:48;100338.53;;;16.36;nan
43814;BME280;29669;55.706;37.656;2023-09-30T00:28:17;100340.09;;;16.31;nan
43814;BME280;29669;55.706;37.656;2023-09-30T00:30:46;100345.66;;;16.21;nan
43814;BME280;29669;55.706;37.656;2023-09-30T00:33:15;100338.72;;;16.14;nan
43814;BME280;29669;55.706;37.656;2023-09-30T00:35:43;100333.81;;;16.11;nan
43814;BME280;29669;55.706;37.656;2023-09-30T00:38:10;100339.88;;;16.11;nan
43814;BME280;29669;55.706;37.656;2023-09-30T00:40:38;100337.25;;;16.11;nan
43814;BME280;29669;55.706;37.656;2023-09-30T00:43:05;100334.63;;;16.11;nan
43814;BME280;29669;55.706;37.656;2023-09-30T00:45:34;100332.22;;;16.10;nan
43814;BME280;29669;55.706;37.656;2023-09-30T00:48:02;100331.59;;;16.08;nan
43814;BME280;29669;55.706;37.656;2023-09-30T00:50:31;100332.59;;;16.07;nan
43814;BME280;29669;55.706;37.656;2023-09-30T00:52:59;100337.00;;;16.06;nan
43814;BME280;29669;55.706;37.656;2023-09-30T00:55:27;100328.53;;;16.04;nan
43814;BME280;29669;55.706;37.656;2023-09-30T00:57:55;100326.88;;;16.03;nan
43814;BME280;29669;55.706;37.656;2023-09-30T01:00:23;100325.09;;;16.03;nan
43814;BME280;29669;55.706;37.656;2023-09-30T01:02:52;100322.84;;;16.00;nan
43814;BME280;29669;55.706;37.656;2023-09-30T01:05:20;100322.66;;;16.02;nan
43814;BME280;29669;55.706;37.656;2023-09-30T01:07:48;100326.88;;;16.03;nan
43814;BME280;29669;55.706;37.656;2023-09-30T01:10:15;100319.84;;;16.03;nan
43814;BME280;29669;55.706;37.656;2023-09-30T01:12:43;100322.84;;;16.00;nan
43814;BME280;29669;55.706;37.656;2023-09-30T01:15:10;100324.03;;;15.98;nan
43814;BME280;29669;55.706;37.656;2023-09-30T01:17:38;100323.38;;;15.96;nan
43814;BME280;29669;55.706;37.656;2023-09-30T01:20:06;100322.75;;;15.94;nan
43814;BME280;29669;55.706;37.656;2023-09-30T01:22:35;100322.50;;;15.89;nan
43814;BME280;29669;55.706;37.656;2023-09-30T01:25:03;100317.81;;;15.84;nan
43814;BME280;29669;55.706;37.656;2023-09-30T01:27:32;100320.63;;;15.83;nan
43814;BME280;29669;55.706;37.656;2023-09-30T01:30:00;100321.78;;;15.80;nan
43814;BME280;29669;55.706;37.656;2023-09-30T01:32:30;100324.53;;;15.72;nan
43814;BME280;29669;55.706;37.656;2023-09-30T01:34:57;100329.47;;;15.67;nan
43814;BME280;29669;55.706;37.656;2023-09-30T01:37:27;100319.56;;;15.63;nan
43814;BME280;29669;55.706;37.656;2023-09-30T01:39:55;100323.72;;;15.57;nan
43814;BME280;29669;55.706;37.656;2023-09-30T01:42:23;100321.72;;;15.45;nan
43814;BME280;29669;55.706;37.656;2023-09-30T01:44:50;100317.53;;;15.36;nan
43814;BME280;29669;55.706;37.656;2023-09-30T01:47:18;100318.44;;;15.28;nan
43814;BME280;29669;55.706;37.656;2023-09-30T01:49:46;100312.50;;;15.20;nan
43814;BME280;29669;55.706;37.656;2023-09-30T01:52:13;100316.47;;;15.16;nan
43814;BME280;29669;55.706;37.656;2023-09-30T01:54:41;100325.28;;;15.15;nan
43814;BME280;29669;55.706;37.656;2023-09-30T01:57:09;100315.19;;;15.12;nan
43814;BME280;29669;55.706;37.656;2023-09-30T01:59:37;100316.53;;;15.07;nan
43814;BME280;29669;55.706;37.656;2023-09-30T02:02:05;100316.09;;;15.04;nan
43814;BME280;29669;55.706;37.656;2023-09-30T02:04:33;100320.22;;;14.98;nan
43814;BME280;29669;55.706;37.656;2023-09-30T02:07:00;100314.69;;;14.93;nan
43814;BME280;29669;55.706;37.656;2023-09-30T02:09:28;100313.09;;;14.92;nan
43814;BME280;29669;55.706;37.656;2023-09-30T02:11:55;100306.13;;;14.85;nan
43814;BME280;29669;55.706;37.656;2023-09-30T02:14:23;100309.44;;;14.79;nan
43814;BME280;29669;55.706;37.656;2023-09-30T02:16:52;100310.13;;;14.73;nan
43814;BME280;29669;55.706;37.656;2023-09-30T02:19:19;100314.28;;;14.67;nan
43814;BME280;29669;55.706;37.656;2023-09-30T02:21:49;100309.22;;;14.66;nan
43814;BME280;29669;55.706;37.656;2023-09-30T02:24:16;100301.56;;;14.64;nan
43814;BME280;29669;55.706;37.656;2023-09-30T02:26:44;100310.56;;;14.62;nan
43814;BME280;29669;55.706;37.656;2023-09-30T02:29:11;100302.25;;;14.58;nan
43814;BME280;29669;55.706;37.656;2023-09-30T02:31:40;100307.66;;;14.57;nan
43814;BME280;29669;55.706;37.656;2023-09-30T02:34:08;100299.19;;;14.55;nan
43814;BME280;29669;55.706;37.656;2023-09-30T02:36:36;100300.34;;;14.52;nan
43814;BME280;29669;55.706;37.656;2023-09-30T02:39:05;100304.94;;;14.50;nan
43814;BME280;29669;55.706;37.656;2023-09-30T02:41:33;100304.66;;;14.45;nan
43814;BME280;29669;55.706;37.656;2023-09-30T02:44:01;100302.38;;;14.42;nan
43814;BME280;29669;55.706;37.656;2023-09-30T02:46:28;100301.44;;;14.35;nan
43814;BME280;29669;55.706;37.656;2023-09-30T02:48:56;100296.59;;;14.32;nan
43814;BME280;29669;55.706;37.656;2023-09-30T02:51:23;100290.22;;;14.27;nan
43814;BME280;29669;55.706;37.656;2023-09-30T02:53:55;100291.56;;;14.23;nan
43814;BME280;29669;55.706;37.656;2023-09-30T02:56:23;100296.59;;;14.24;nan
43814;BME280;29669;55.706;37.656;2023-09-30T02:58:52;100282.91;;;14.22;nan
43814;BME280;29669;55.706;37.656;2023-09-30T03:01:20;100298.88;;;14.27;nan
43814;BME280;29669;55.706;37.656;2023-09-30T03:03:48;100288.31;;;14.21;nan
43814;BME280;29669;55.706;37.656;2023-09-30T03:06:16;100286.22;;;14.16;nan
43814;BME280;29669;55.706;37.656;2023-09-30T03:08:46;100285.28;;;14.09;nan
43814;BME280;29669;55.706;37.656;2023-09-30T03:11:14;100285.63;;;14.06;nan
43814;BME280;29669;55.706;37.656;2023-09-30T03:13:42;100277.84;;;13.98;nan
43814;BME280;29669;55.706;37.656;2023-09-30T03:16:10;100293.50;;;13.98;nan
43814;BME280;29669;55.706;37.656;2023-09-30T03:18:38;100286.19;;;13.93;nan
43814;BME280;29669;55.706;37.656;2023-09-30T03:21:13;100285.34;;;13.93;nan
43814;BME280;29669;55.706;37.656;2023-09-30T03:23:42;100286.06;;;13.87;nan
43814;BME280;29669;55.706;37.656;2023-09-30T03:26:10;100278.56;;;13.84;nan
43814;BME280;29669;55.706;37.656;2023-09-30T03:28:38;100282.00;;;13.84;nan
43814;BME280;29669;55.706;37.656;2023-09-30T03:31:05;100278.38;;;13.85;nan
43814;BME280;29669;55.706;37.656;2023-09-30T03:33:34;100285.91;;;13.88;nan
43814;BME280;29669;55.706;37.656;2023-09-30T03:36:02;100284.56;;;13.92;nan
43814;BME280;29669;55.706;37.656;2023-09-30T03:38:31;100286.66;;;13.97;nan
43814;BME280;29669;55.706;37.656;2023-09-30T03:40:59;100275.25;;;13.98;nan
43814;BME280;29669;55.706;37.656;2023-09-30T03:43:27;100266.75;;;13.96;nan
43814;BME280;29669;55.706;37.656;2023-09-30T03:45:55;100273.28;;;14.00;nan
43814;BME280;29669;55.706;37.656;2023-09-30T03:48:24;100275.88;;;14.00;nan
43814;BME280;29669;55.706;37.656;2023-09-30T03:50:52;100280.91;;;14.01;nan
43814;BME280;29669;55.706;37.656;2023-09-30T03:53:21;100272.91;;;14.03;nan
43814;BME280;29669;55.706;37.656;2023-09-30T03:55:48;100278.41;;;14.08;nan
43814;BME280;29669;55.706;37.656;2023-09-30T03:58:16;100280.34;;;14.14;nan
43814;BME280;29669;55.706;37.656;2023-09-30T04:00:45;100276.06;;;14.21;nan
43814;BME280;29669;55.706;37.656;2023-09-30T04:03:13;100274.41;;;14.28;nan
43814;BME280;29669;55.706;37.656;2023-09-30T04:05:41;100283.34;;;14.34;nan
43814;BME280;29669;55.706;37.656;2023-09-30T04:08:09;100283.00;;;14.37;nan
43814;BME280;29669;55.706;37.656;2023-09-30T04:10:36;100285.28;;;14.40;nan
43814;BME280;29669;55.706;37.656;2023-09-30T04:13:04;100275.09;;;14.45;nan
43814;BME280;29669;55.706;37.656;2023-09-30T04:15:32;100270.34;;;14.48;nan
43814;BME280;29669;55.706;37.656;2023-09-30T04:17:59;100274.88;;;14.54;nan
43814;BME280;29669;55.706;37.656;2023-09-30T04:20:28;100271.56;;;14.60;nan
43814;BME280;29669;55.706;37.656;2023-09-30T04:22:57;100275.06;;;14.67;nan
43814;BME280;29669;55.706;37.656;2023-09-30T04:25:25;100276.34;;;14.71;nan
43814;BME280;29669;55.706;37.656;2023-09-30T04:27:53;100272.03;;;14.78;nan
43814;BME280;29669;55.706;37.656;2023-09-30T04:30:21;100281.78;;;14.84;nan
43814;BME280;29669;55.706;37.656;2023-09-30T04:32:50;100291.53;;;14.90;nan
43814;BME280;29669;55.706;37.656;2023-09-30T04:35:18;100284.78;;;14.96;nan
43814;BME280;29669;55.706;37.656;2023-09-30T04:37:45;100272.78;;;15.01;nan
43814;BME280;29669;55.706;37.656;2023-09-30T04:40:13;100272.09;;;15.07;nan
43814;BME280;29669;55.706;37.656;2023-09-30T04:42:50;100274.78;;;15.14;nan
43814;BME280;29669;55.706;37.656;2023-09-30T04:45:18;100269.47;;;15.22;nan
43814;BME280;29669;55.706;37.656;2023-09-30T04:47:49;100279.66;;;15.32;nan
43814;BME280;29669;55.706;37.656;2023-09-30T04:50:17;100274.69;;;15.37;nan
43814;BME280;29669;55.706;37.656;2023-09-30T04:52:45;100275.25;;;15.47;nan
43814;BME280;29669;55.706;37.656;2023-09-30T04:55:14;100285.25;;;15.58;nan
43814;BME280;29669;55.706;37.656;2023-09-30T04:57:46;100276.88;;;15.62;nan
43814;BME280;29669;55.706;37.656;2023-09-30T05:00:16;100274.16;;;15.70;nan
43814;BME280;29669;55.706;37.656;2023-09-30T05:02:52;100281.88;;;15.78;nan
43814;BME280;29669;55.706;37.656;2023-09-30T05:05:21;100271.50;;;15.85;nan
43814;BME280;29669;55.706;37.656;2023-09-30T05:07:49;100277.28;;;15.95;nan
43814;BME280;29669;55.706;37.656;2023-09-30T05:10:17;100276.50;;;16.01;nan
43814;BME280;29669;55.706;37.656;2023-09-30T05:12:45;100268.94;;;16.06;nan
43814;BME280;29669;55.706;37.656;2023-09-30T05:15:16;100287.38;;;16.19;nan
43814;BME280;29669;55.706;37.656;2023-09-30T05:17:45;100277.97;;;16.25;nan
43814;BME280;29669;55.706;37.656;2023-09-30T05:20:14;100279.28;;;16.35;nan
43814;BME280;29669;55.706;37.656;2023-09-30T05:22:45;100264.44;;;16.42;nan
43814;BME280;29669;55.706;37.656;2023-09-30T05:25:15;100273.28;;;16.56;nan
43814;BME280;29669;55.706;37.656;2023-09-30T05:27:46;100266.63;;;16.60;nan
43814;BME280;29669;55.706;37.656;2023-09-30T05:30:17;100268.75;;;16.71;nan
43814;BME280;29669;55.706;37.656;2023-09-30T05:32:48;100262.72;;;16.77;nan
43814;BME280;29669;55.706;37.656;2023-09-30T05:35:16;100269.28;;;16.87;nan
43814;BME280;29669;55.706;37.656;2023-09-30T05:37:45;100265.72;;;17.02;nan
43814;BME280;29669;55.706;37.656;2023-09-30T05:40:14;100260.53;;;17.08;nan
43814;BME280;29669;55.706;37.656;2023-09-30T05:42:55;100255.31;;;17.15;nan
43814;BME280;29669;55.706;37.656;2023-09-30T05:45:30;100253.78;;;17.27;nan
43814;BME280;29669;55.706;37.656;2023-09-30T05:47:58;100253.22;;;17.38;nan
43814;BME280;29669;55.706;37.656;2023-09-30T05:50:32;100252.66;;;17.42;nan
43814;BME280;29669;55.706;37.656;2023-09-30T05:53:02;100253.13;;;17.52;nan
43814;BME280;29669;55.706;37.656;2023-09-30T05:55:30;100254.78;;;17.60;nan
43814;BME280;29669;55.706;37.656;2023-09-30T05:57:57;100250.34;;;17.67;nan
43814;BME280;29669;55.706;37.656;2023-09-30T06:00:28;100249.56;;;17.73;nan
43814;BME280;29669;55.706;37.656;2023-09-30T06:03:01;100236.25;;;17.81;nan
43814;BME280;29669;55.706;37.656;2023-09-30T06:05:29;100246.59;;;17.89;nan
43814;BME280;29669;55.706;37.656;2023-09-30T06:08:02;100237.50;;;17.98;nan
43814;BME280;29669;55.706;37.656;2023-09-30T06:10:31;100237.72;;;18.03;nan
43814;BME280;29669;55.706;37.656;2023-09-30T06:12:59;100235.34;;;18.15;nan
43814;BME280;29669;55.706;37.656;2023-09-30T06:15:28;100235.94;;;18.23;nan
43814;BME280;29669;55.706;37.656;2023-09-30T06:17:57;100225.81;;;18.27;nan
43814;BME280;29669;55.706;37.656;2023-09-30T06:20:26;100233.53;;;18.35;nan
43814;BME280;29669;55.706;37.656;2023-09-30T06:22:55;100229.91;;;18.42;nan
43814;BME280;29669;55.706;37.656;2023-09-30T06:25:23;100233.94;;;18.51;nan
43814;BME280;29669;55.706;37.656;2023-09-30T06:27:52;100227.47;;;18.60;nan
43814;BME280;29669;55.706;37.656;2023-09-30T06:30:20;100216.97;;;18.67;nan
43814;BME280;29669;55.706;37.656;2023-09-30T06:32:49;100216.75;;;18.75;nan
43814;BME280;29669;55.706;37.656;2023-09-30T06:35:19;100222.22;;;18.87;nan
43814;BME280;29669;55.706;37.656;2023-09-30T06:37:50;100216.91;;;18.93;nan
43814;BME280;29669;55.706;37.656;2023-09-30T06:40:17;100212.25;;;19.02;nan
43814;BME280;29669;55.706;37.656;2023-09-30T06:42:46;100206.16;;;19.08;nan
43814;BME280;29669;55.706;37.656;2023-09-30T06:45:14;100205.53;;;19.12;nan
43814;BME280;29669;55.706;37.656;2023-09-30T06:47:43;100207.94;;;19.20;nan
43814;BME280;29669;55.706;37.656;2023-09-30T06:50:13;100213.41;;;19.32;nan
43814;BME280;29669;55.706;37.656;2023-09-30T06:52:48;100213.97;;;19.40;nan
43814;BME280;29669;55.706;37.656;2023-09-30T06:55:26;100210.50;;;19.46;nan
43814;BME280;29669;55.706;37.656;2023-09-30T06:57:59;100201.56;;;19.54;nan
43814;BME280;29669;55.706;37.656;2023-09-30T07:00:26;100199.91;;;19.59;nan
43814;BME280;29669;55.706;37.656;2023-09-30T07:02:55;100205.16;;;19.66;nan
43814;BME280;29669;55.706;37.656;2023-09-30T07:05:22;100199.63;;;19.74;nan
43814;BME280;29669;55.706;37.656;2023-09-30T07:07:50;100208.91;;;19.83;nan
43814;BME280;29669;55.706;37.656;2023-09-30T07:10:18;100207.25;;;19.89;nan
43814;BME280;29669;55.706;37.656;2023-09-30T07:12:46;100203.97;;;19.93;nan
43814;BME280;29669;55.706;37.656;2023-09-30T07:15:14;100198.66;;;20.00;nan
43814;BME280;29669;55.706;37.656;2023-09-30T07:17:42;100198.44;;;20.01;nan
43814;BME280;29669;55.706;37.656;2023-09-30T07:20:12;100205.50;;;20.07;nan
43814;BME280;29669;55.706;37.656;2023-09-30T07:22:40;100203.63;;;20.14;nan
43814;BME280;29669;55.706;37.656;2023-09-30T07:25:19;100192.66;;;20.17;nan
43814;BME280;29669;55.706;37.656;2023-09-30T07:27:47;100186.53;;;20.23;nan
43814;BME280;29669;55.706;37.656;2023-09-30T07:30:15;100197.69;;;20.25;nan
43814;BME280;29669;55.706;37.656;2023-09-30T07:32:44;100192.00;;;20.28;nan
43814;BME280;29669;55.706;37.656;2023-09-30T07:35:12;100195.81;;;20.32;nan
43814;BME280;29669;55.706;37.656;2023-09-30T07:37:43;100188.50;;;20.34;nan
43814;BME280;29669;55.706;37.656;2023-09-30T07:40:12;100186.38;;;20.43;nan
43814;BME280;29669;55.706;37.656;2023-09-30T07:42:40;100187.81;;;20.45;nan
43814;BME280;29669;55.706;37.656;2023-09-30T07:45:08;100185.75;;;20.47;nan
43814;BME280;29669;55.706;37.656;2023-09-30T07:47:36;100188.53;;;20.52;nan
43814;BME280;29669;55.706;37.656;2023-09-30T07:50:04;100185.44;;;20.55;nan
43814;BME280;29669;55.706;37.656;2023-09-30T07:52:38;100177.72;;;20.60;nan
43814;BME280;29669;55.706;37.656;2023-09-30T07:55:10;100185.31;;;20.69;nan
43814;BME280;29669;55.706;37.656;2023-09-30T07:57:41;100176.53;;;20.75;nan
43814;BME280;29669;55.706;37.656;2023-09-30T08:00:10;100178.91;;;20.83;nan
43814;BME280;29669;55.706;37.656;2023-09-30T08:02:43;100179.63;;;20.90;nan
43814;BME280;29669;55.706;37.656;2023-09-30T08:05:11;100176.34;;;20.94;nan
43814;BME280;29669;55.706;37.656;2023-09-30T08:07:39;100170.72;;;20.91;nan
43814;BME280;29669;55.706;37.656;2023-09-30T08:10:07;100169.53;;;20.87;nan
43814;BME280;29669;55.706;37.656;2023-09-30T08:12:40;100167.72;;;20.87;nan
43814;BME280;29669;55.706;37.656;2023-09-30T08:15:09;100171.28;;;20.93;nan
43814;BME280;29669;55.706;37.656;2023-09-30T08:17:40;100169.19;;;21.01;nan
43814;BME280;29669;55.706;37.656;2023-09-30T08:20:09;100168.09;;;21.09;nan
43814;BME280;29669;55.706;37.656;2023-09-30T08:22:37;100162.81;;;21.09;nan
43814;BME280;29669;55.706;37.656;2023-09-30T08:25:05;100163.38;;;21.11;nan
43814;BME280;29669;55.706;37.656;2023-09-30T08:27:34;100155.25;;;21.12;nan
43814;BME280;29669;55.706;37.656;2023-09-30T08:30:02;100154.59;;;21.17;nan
43814;BME280;29669;55.706;37.656;2023-09-30T08:32:35;100157.81;;;21.19;nan
43814;BME280;29669;55.706;37.656;2023-09-30T08:35:03;100156.00;;;21.19;nan
43814;BME280;29669;55.706;37.656;2023-09-30T08:37:31;100160.59;;;21.24;nan
43814;BME280;29669;55.706;37.656;2023-09-30T08:39:59;100151.66;;;21.25;nan
43814;BME280;29669;55.706;37.656;2023-09-30T08:42:27;100151.56;;;21.31;nan
43814;BME280;29669;55.706;37.656;2023-09-30T08:45:02;100142.16;;;21.35;nan
43814;BME280;29669;55.706;37.656;2023-09-30T08:47:33;100139.88;;;21.39;nan
43814;BME280;29669;55.706;37.656;2023-09-30T08:50:05;100143.25;;;21.46;nan
43814;BME280;29669;55.706;37.656;2023-09-30T08:52:40;100136.94;;;21.47;nan
43814;BME280;29669;55.706;37.656;2023-09-30T08:55:08;100135.00;;;21.54;nan
43814;BME280;29669;55.706;37.656;2023-09-30T08:57:41;100140.44;;;21.59;nan
43814;BME280;29669;55.706;37.656;2023-09-30T09:00:13;100135.25;;;21.64;nan
43814;BME280;29669;55.706;37.656;2023-09-30T09:02:42;100125.50;;;21.65;nan
43814;BME280;29669;55.706;37.656;2023-09-30T09:05:10;100133.91;;;21.73;nan
43814;BME280;29669;55.706;37.656;2023-09-30T09:07:39;100136.13;;;21.76;nan
43814;BME280;29669;55.706;37.656;2023-09-30T09:10:09;100122.53;;;21.73;nan
43814;BME280;29669;55.706;37.656;2023-09-30T09:12:38;100128.75;;;21.78;nan
43814;BME280;29669;55.706;37.656;2023-09-30T09:15:08;100115.22;;;21.86;nan
43814;BME280;29669;55.706;37.656;2023-09-30T09:17:47;100111.09;;;21.90;nan
43814;BME280;29669;55.706;37.656;2023-09-30T09:20:21;100122.94;;;21.99;nan
43814;BME280;29669;55.706;37.656;2023-09-30T09:22:54;100126.88;;;22.08;nan
43814;BME280;29669;55.706;37.656;2023-09-30T09:25:23;100112.28;;;22.17;nan
43814;BME280;29669;55.706;37.656;2023-09-30T09:27:52;100116.66;;;22.23;nan
43814;BME280;29669;55.706;37.656;2023-09-30T09:30:25;100129.09;;;22.34;nan
43814;BME280;29669;55.706;37.656;2023-09-30T09:32:58;100112.63;;;22.32;nan
43814;BME280;29669;55.706;37.656;2023-09-30T09:35:26;100113.56;;;22.26;nan
43814;BME280;29669;55.706;37.656;2023-09-30T09:38:06;100111.47;;;22.28;nan
43814;BME280;29669;55.706;37.656;2023-09-30T09:40:38;100106.44;;;22.38;nan
43814;BME280;29669;55.706;37.656;2023-09-30T09:43:09;100117.09;;;22.55;nan
43814;BME280;29669;55.706;37.656;2023-09-30T09:45:38;100106.41;;;22.73;nan
43814;BME280;29669;55.706;37.656;2023-09-30T09:48:06;100102.22;;;22.89;nan
43814;BME280;29669;55.706;37.656;2023-09-30T09:50:35;100100.22;;;23.07;nan
43814;BME280;29669;55.706;37.656;2023-09-30T09:53:07;100113.31;;;23.14;nan
43814;BME280;29669;55.706;37.656;2023-09-30T09:55:36;100103.09;;;23.06;nan
43814;BME280;29669;55.706;37.656;2023-09-30T09:58:08;100103.44;;;23.09;nan
43814;BME280;29669;55.706;37.656;2023-09-30T10:00:38;100091.09;;;23.15;nan
43814;BME280;29669;55.706;37.656;2023-09-30T10:03:06;100099.47;;;23.23;nan
43814;BME280;29669;55.706;37.656;2023-09-30T10:05:34;100095.28;;;23.39;nan
43814;BME280;29669;55.706;37.656;2023-09-30T10:08:07;100096.19;;;23.61;nan
43814;BME280;29669;55.706;37.656;2023-09-30T10:10:36;100091.41;;;23.75;nan
43814;BME280;29669;55.706;37.656;2023-09-30T10:13:05;100092.53;;;23.95;nan
43814;BME280;29669;55.706;37.656;2023-09-30T10:18:04;100086.41;;;24.11;nan
43814;BME280;29669;55.706;37.656;2023-09-30T10:20:33;100088.50;;;24.09;nan
43814;BME280;29669;55.706;37.656;2023-09-30T10:23:24;100092.28;;;24.13;nan
43814;BME280;29669;55.706;37.656;2023-09-30T10:26:20;100092.03;;;24.15;nan
43814;BME280;29669;55.706;37.656;2023-09-30T10:28:50;100092.84;;;24.15;nan
43814;BME280;29669;55.706;37.656;2023-09-30T10:31:22;100088.03;;;24.12;nan
43814;BME280;29669;55.706;37.656;2023-09-30T10:39:00;100085.47;;;23.84;nan
43814;BME280;29669;55.706;37.656;2023-09-30T10:46:57;100073.31;;;23.72;nan
43814;BME280;29669;55.706;37.656;2023-09-30T10:51:57;100065.34;;;23.55;nan
43814;BME280;29669;55.706;37.656;2023-09-30T10:54:28;100067.81;;;23.45;nan
43814;BME280;29669;55.706;37.656;2023-09-30T10:56:56;100066.94;;;23.40;nan
43814;BME280;29669;55.706;37.656;2023-09-30T10:59:29;100060.19;;;23.32;nan
43814;BME280;29669;55.706;37.656;2023-09-30T11:01:57;100060.19;;;23.32;nan
43814;BME280;29669;55.706;37.656;2023-09-30T11:04:26;100055.13;;;23.30;nan
43814;BME280;29669;55.706;37.656;2023-09-30T11:06:59;100048.31;;;23.34;nan
43814;BME280;29669;55.706;37.656;2023-09-30T11:09:28;100040.88;;;23.48;nan
43814;BME280;29669;55.706;37.656;2023-09-30T11:11:55;100045.34;;;23.64;nan
43814;BME280;29669;55.706;37.656;2023-09-30T11:14:26;100037.25;;;23.87;nan
43814;BME280;29669;55.706;37.656;2023-09-30T11:17:01;100033.06;;;24.08;nan
43814;BME280;29669;55.706;37.656;2023-09-30T11:19:36;100039.91;;;24.04;nan
43814;BME280;29669;55.706;37.656;2023-09-30T11:22:05;100034.19;;;23.95;nan
43814;BME280;29669;55.706;37.656;2023-09-30T11:24:36;100040.13;;;23.86;nan
43814;BME280;29669;55.706;37.656;2023-09-30T11:27:04;100047.28;;;23.85;nan
43814;BME280;29669;55.706;37.656;2023-09-30T11:29:32;100037.41;;;23.81;nan
43814;BME280;29669;55.706;37.656;2023-09-30T11:31:59;100026.66;;;23.71;nan
43814;BME280;29669;55.706;37.656;2023-09-30T11:34:36;100028.41;;;23.65;nan
43814;BME280;29669;55.706;37.656;2023-09-30T11:37:05;100024.00;;;23.71;nan
43814;BME280;29669;55.706;37.656;2023-09-30T11:39:33;100028.56;;;23.75;nan
43814;BME280;29669;55.706;37.656;2023-09-30T11:42:01;100017.06;;;23.70;nan
43814;BME280;29669;55.706;37.656;2023-09-30T11:44:30;100017.25;;;23.63;nan
43814;BME280;29669;55.706;37.656;2023-09-30T11:47:02;100012.97;;;23.62;nan
43814;BME280;29669;55.706;37.656;2023-09-30T11:49:34;100016.19;;;23.64;nan
43814;BME280;29669;55.706;37.656;2023-09-30T11:52:04;100009.78;;;23.60;nan
43814;BME280;29669;55.706;37.656;2023-09-30T11:54:40;100007.63;;;23.57;nan
43814;BME280;29669;55.706;37.656;2023-09-30T11:57:16;100005.53;;;23.59;nan
43814;BME280;29669;55.706;37.656;2023-09-30T11:59:46;100007.88;;;23.56;nan
43814;BME280;29669;55.706;37.656;2023-09-30T12:02:14;100000.88;;;23.50;nan
43814;BME280;29669;55.706;37.656;2023-09-30T12:04:44;100007.53;;;23.52;nan
43814;BME280;29669;55.706;37.656;2023-09-30T12:07:12;99996.94;;;23.52;nan
43814;BME280;29669;55.706;37.656;2023-09-30T12:09:40;99986.41;;;23.57;nan
43814;BME280;29669;55.706;37.656;2023-09-30T12:12:09;99996.31;;;23.62;nan
43814;BME280;29669;55.706;37.656;2023-09-30T12:14:37;99998.06;;;23.56;nan
43814;BME280;29669;55.706;37.656;2023-09-30T12:17:05;99988.19;;;23.52;nan
43814;BME280;29669;55.706;37.656;2023-09-30T12:19:33;99984.25;;;23.54;nan
43814;BME280;29669;55.706;37.656;2023-09-30T12:22:00;99981.75;;;23.64;nan
43814;BME280;29669;55.706;37.656;2023-09-30T12:24:28;99977.41;;;23.75;nan
43814;BME280;29669;55.706;37.656;2023-09-30T12:26:55;99959.75;;;24.18;nan
43814;BME280;29669;55.706;37.656;2023-09-30T12:29:23;99974.00;;;24.77;nan
43814;BME280;29669;55.706;37.656;2023-09-30T12:31:52;99972.53;;;25.23;nan
43814;BME280;29669;55.706;37.656;2023-09-30T12:34:22;99976.50;;;25.47;nan
43814;BME280;29669;55.706;37.656;2023-09-30T12:36:54;99981.97;;;25.72;nan
43814;BME280;29669;55.706;37.656;2023-09-30T12:39:25;99967.81;;;25.57;nan
43814;BME280;29669;55.706;37.656;2023-09-30T12:41:54;99967.47;;;25.48;nan
43814;BME280;29669;55.706;37.656;2023-09-30T12:44:22;99965.34;;;25.45;nan
43814;BME280;29669;55.706;37.656;2023-09-30T12:46:50;99971.50;;;25.92;nan
43814;BME280;29669;55.706;37.656;2023-09-30T12:49:19;99958.69;;;26.36;nan
43814;BME280;29669;55.706;37.656;2023-09-30T12:51:48;99955.09;;;26.82;nan
43814;BME280;29669;55.706;37.656;2023-09-30T12:54:16;99951.16;;;27.25;nan
43814;BME280;29669;55.706;37.656;2023-09-30T12:56:46;99949.50;;;27.29;nan
43814;BME280;29669;55.706;37.656;2023-09-30T12:59:16;99954.19;;;26.42;nan
43814;BME280;29669;55.706;37.656;2023-09-30T13:01:45;99952.34;;;25.95;nan
43814;BME280;29669;55.706;37.656;2023-09-30T13:04:14;99948.59;;;26.43;nan
43814;BME280;29669;55.706;37.656;2023-09-30T13:06:42;99957.78;;;27.08;nan
43814;BME280;29669;55.706;37.656;2023-09-30T13:09:10;99942.88;;;27.27;nan
43814;BME280;29669;55.706;37.656;2023-09-30T13:11:39;99946.84;;;26.94;nan
43814;BME280;29669;55.706;37.656;2023-09-30T13:14:07;99948.19;;;27.02;nan
43814;BME280;29669;55.706;37.656;2023-09-30T13:16:35;99945.28;;;27.33;nan
43814;BME280;29669;55.706;37.656;2023-09-30T13:19:02;99942.84;;;27.62;nan
43814;BME280;29669;55.706;37.656;2023-09-30T13:21:30;99938.59;;;27.56;nan
43814;BME280;29669;55.706;37.656;2023-09-30T13:23:58;99937.53;;;27.22;nan
43814;BME280;29669;55.706;37.656;2023-09-30T13:26:26;99931.13;;;26.82;nan
43814;BME280;29669;55.706;37.656;2023-09-30T13:28:54;99931.13;;;27.13;nan